Time;durP1;ratioP1;P1;durP2;ratioP2;P2;SDS_P1;SDS_P2;PMS_P1;PMS_P2;Temp;Humidity;BMP_temperature;BMP_pressure;BME280_temperature;BME280_humidity;BME280_pressure;Samples;Min_cycle;Max_cycle;Signal;HPM_P1;HPM_P2
2022/10/24 00:00:45;;;;;;;5.97;2.40;;;22.00;81.30;;;;;;4931175;29;20850;-76
2022/10/24 00:03:11;;;;;;;8.90;2.80;;;22.20;80.50;;;;;;4934003;29;20844;-76
2022/10/24 00:05:41;;;;;;;7.63;2.90;;;22.20;80.10;;;;;;4950820;28;20424;-77
2022/10/24 00:08:06;;;;;;;10.52;3.00;;;22.20;80.00;;;;;;4937093;28;20503;-76
2022/10/24 00:10:32;;;;;;;8.38;2.80;;;22.40;79.60;;;;;;4932175;29;20458;-76
2022/10/24 00:12:58;;;;;;;9.77;3.30;;;22.40;80.10;;;;;;4932800;29;20416;-76
2022/10/24 00:15:23;;;;;;;6.90;2.67;;;22.20;80.20;;;;;;4932031;29;20418;-75
2022/10/24 00:17:49;;;;;;;7.40;2.67;;;22.30;80.30;;;;;;4934210;29;20878;-76
2022/10/24 00:20:14;;;;;;;9.10;2.93;;;22.30;80.40;;;;;;4930557;29;20484;-76
2022/10/24 00:22:40;;;;;;;8.60;2.90;;;22.20;80.90;;;;;;4934981;29;20446;-76
2022/10/24 00:25:06;;;;;;;9.37;3.10;;;22.20;80.60;;;;;;4930401;29;20417;-76
2022/10/24 00:27:34;;;;;;;8.70;3.05;;;22.10;82.60;;;;;;4933319;29;20774;-76
2022/10/24 00:29:59;;;;;;;8.00;2.80;;;22.00;82.50;;;;;;4931231;29;20416;-76
2022/10/24 00:32:25;;;;;;;5.97;2.60;;;22.10;82.70;;;;;;4932947;29;20501;-76
2022/10/24 00:34:50;;;;;;;9.13;2.63;;;22.20;82.60;;;;;;4935455;29;20502;-75
2022/10/24 00:37:16;;;;;;;7.97;2.40;;;22.10;83.00;;;;;;4942151;28;20771;-76
2022/10/24 00:39:41;;;;;;;11.33;4.20;;;22.10;83.10;;;;;;4952987;28;21005;-76
2022/10/24 00:42:07;;;;;;;14.80;3.92;;;22.00;91.10;;;;;;4933318;29;20402;-75
2022/10/24 00:44:38;;;;;;;11.00;3.53;;;20.90;99.90;;;;;;4931845;29;20494;-75
2022/10/24 00:47:03;;;;;;;12.38;4.60;;;19.90;99.90;;;;;;4928140;29;20926;-76
2022/10/24 00:49:52;;;;;;;9.83;3.77;;;19.20;99.90;;;;;;4939901;29;20440;-75
2022/10/24 00:52:23;;;;;;;10.32;3.13;;;19.10;99.90;;;;;;4929989;29;20399;-76
2022/10/24 00:54:50;;;;;;;5.57;3.20;;;18.70;99.90;;;;;;4929946;29;20403;-76
2022/10/24 00:57:41;;;;;;;8.60;4.10;;;18.40;99.90;;;;;;4935050;29;20819;-76
2022/10/24 01:00:12;;;;;;;8.93;3.00;;;18.60;99.90;;;;;;4934998;29;20913;-76
2022/10/24 01:02:38;;;;;;;8.90;3.50;;;18.10;99.90;;;;;;4932541;29;20422;-76
2022/10/24 01:05:05;;;;;;;10.23;3.60;;;17.80;99.90;;;;;;4935920;29;20414;-76
2022/10/24 01:07:42;;;;;;;8.52;3.70;;;17.60;99.90;;;;;;4927969;29;20792;-76
2022/10/24 01:10:49;;;;;;;10.93;3.67;;;17.50;99.90;;;;;;4928260;29;20929;-76
2022/10/24 01:13:27;;;;;;;10.35;3.40;;;17.70;99.90;;;;;;4930620;29;20403;-76
2022/10/24 01:16:06;;;;;;;10.10;3.35;;;17.80;99.90;;;;;;4936831;29;20408;-76
2022/10/24 01:18:39;;;;;;;13.05;3.53;;;17.60;99.90;;;;;;4930384;29;20463;-77
2022/10/24 01:21:24;;;;;;;10.07;3.33;;;17.90;99.90;;;;;;4936072;29;20798;-76
2022/10/24 01:24:34;;;;;;;9.05;3.88;;;17.70;99.90;;;;;;4932599;29;20399;-76
2022/10/24 01:27:11;;;;;;;13.05;4.10;;;17.60;99.90;;;;;;4947373;28;20520;-77
2022/10/24 01:29:54;;;;;;;7.73;3.53;;;17.30;99.90;;;;;;4933763;29;20494;-77
2022/10/24 01:32:41;;;;;;;9.60;3.45;;;17.30;99.90;;;;;;4938584;29;20413;-77
2022/10/24 01:35:34;;;;;;;9.38;3.70;;;17.30;99.90;;;;;;4934836;28;20866;-76
2022/10/24 01:38:02;;;;;;;9.43;2.85;;;17.30;99.90;;;;;;4936504;29;20419;-76
2022/10/24 01:40:33;;;;;;;6.32;2.70;;;17.50;99.90;;;;;;4934200;28;20415;-77
2022/10/24 01:43:06;;;;;;;10.13;4.25;;;17.60;99.90;;;;;;4926133;29;20397;-77
2022/10/24 01:45:35;;;;;;;10.75;3.20;;;17.50;99.90;;;;;;4935522;29;20551;-77
2022/10/24 01:48:06;;;;;;;10.13;3.90;;;17.60;99.90;;;;;;4931882;29;20415;-77
2022/10/24 01:50:35;;;;;;;5.75;2.92;;;17.80;99.90;;;;;;4944516;28;20451;-77
2022/10/24 01:53:02;;;;;;;10.55;3.78;;;17.70;99.90;;;;;;4935086;29;20425;-77
2022/10/24 01:55:30;;;;;;;11.30;3.45;;;17.60;99.90;;;;;;4926501;29;20412;-77
2022/10/24 01:57:56;;;;;;;9.90;3.47;;;17.70;99.90;;;;;;4926069;29;20408;-77
2022/10/24 02:00:23;;;;;;;6.50;3.03;;;18.00;99.90;;;;;;4934643;29;20410;-77
2022/10/24 02:03:03;;;;;;;6.85;2.83;;;17.70;99.90;;;;;;4931457;29;20934;-77
2022/10/24 02:05:41;;;;;;;6.90;3.72;;;17.60;99.90;;;;;;4931921;29;20482;-77
2022/10/24 02:08:13;;;;;;;7.85;3.53;;;17.40;99.90;;;;;;4937214;29;20438;-77
2022/10/24 02:10:45;;;;;;;9.68;3.30;;;17.40;99.90;;;;;;4931275;29;20419;-77
2022/10/24 02:13:18;;;;;;;10.27;3.77;;;17.50;99.90;;;;;;4930920;29;20463;-77
2022/10/24 02:15:51;;;;;;;8.35;3.40;;;17.50;99.90;;;;;;4931480;29;20412;-77
2022/10/24 02:18:17;;;;;;;6.95;2.75;;;17.70;99.90;;;;;;4930340;29;20968;-77
2022/10/24 02:20:57;;;;;;;6.25;3.38;;;17.60;99.90;;;;;;4934988;29;20474;-77
2022/10/24 02:23:32;;;;;;;8.65;2.67;;;17.60;99.90;;;;;;4932616;29;20400;-77
2022/10/24 02:26:01;;;;;;;8.47;3.10;;;17.50;99.90;;;;;;4931799;29;20510;-77
2022/10/24 02:28:32;;;;;;;7.53;3.03;;;17.60;99.90;;;;;;4929714;29;20421;-77
2022/10/24 02:31:03;;;;;;;7.80;2.97;;;17.60;99.90;;;;;;4935779;28;20940;-77
2022/10/24 02:33:30;;;;;;;8.43;2.92;;;17.40;99.90;;;;;;4930181;29;20425;-77
2022/10/24 02:35:56;;;;;;;12.02;3.13;;;17.30;99.90;;;;;;4937873;29;20894;-77
2022/10/24 02:38:33;;;;;;;8.02;2.70;;;17.40;99.90;;;;;;4930182;28;20439;-77
2022/10/24 02:41:01;;;;;;;6.57;2.95;;;17.50;99.90;;;;;;4933535;29;20919;-77
2022/10/24 02:43:29;;;;;;;10.30;2.85;;;17.50;99.90;;;;;;4929369;29;20436;-77
2022/10/24 02:45:56;;;;;;;9.98;2.72;;;18.30;99.90;;;;;;4928391;29;20423;-77
2022/10/24 02:48:27;;;;;;;11.10;2.92;;;18.40;99.90;;;;;;4936382;28;20949;-77
2022/10/24 02:50:53;;;;;;;7.95;2.58;;;18.30;99.90;;;;;;4941240;29;20430;-77
2022/10/24 02:53:20;;;;;;;8.17;2.80;;;18.10;99.90;;;;;;4933881;28;20388;-77
2022/10/24 02:55:46;;;;;;;6.05;2.65;;;18.10;99.90;;;;;;4938040;29;20920;-77
2022/10/24 02:58:12;;;;;;;7.25;2.80;;;18.40;99.90;;;;;;4936594;28;20428;-77
2022/10/24 03:00:37;;;;;;;7.17;2.60;;;18.50;99.90;;;;;;4943434;29;20418;-77
2022/10/24 03:03:03;;;;;;;7.73;2.57;;;18.90;99.90;;;;;;4933155;29;20411;-77
2022/10/24 03:05:29;;;;;;;9.55;2.90;;;19.50;99.90;;;;;;4937174;29;20494;-77
2022/10/24 03:07:54;;;;;;;7.70;2.63;;;19.90;99.90;;;;;;4934044;29;20415;-77
2022/10/24 03:10:20;;;;;;;7.23;2.70;;;19.90;99.90;;;;;;4933905;29;20913;-77
2022/10/24 03:12:45;;;;;;;8.55;2.45;;;20.30;99.90;;;;;;4935145;29;20479;-76
2022/10/24 03:15:11;;;;;;;5.07;2.23;;;20.50;99.90;;;;;;4933744;29;20487;-77
2022/10/24 03:17:37;;;;;;;5.70;2.03;;;20.50;99.90;;;;;;4934409;29;20425;-77
2022/10/24 03:20:03;;;;;;;4.93;2.00;;;20.50;98.40;;;;;;4937870;28;20423;-76
2022/10/24 03:22:28;;;;;;;7.03;2.17;;;20.90;96.70;;;;;;4935365;29;20419;-76
2022/10/24 03:24:54;;;;;;;5.57;2.40;;;20.90;96.60;;;;;;4935435;29;20494;-77
2022/10/24 03:27:20;;;;;;;4.30;2.10;;;20.90;97.10;;;;;;4937156;29;20415;-76
2022/10/24 03:29:45;;;;;;;7.57;2.22;;;20.70;98.50;;;;;;4937162;29;20410;-76
2022/10/24 03:32:11;;;;;;;7.87;2.90;;;20.50;99.90;;;;;;4934524;28;20446;-78
2022/10/24 03:34:36;;;;;;;3.83;2.40;;;19.60;99.90;;;;;;4946492;29;20504;-79
2022/10/24 03:37:02;;;;;;;6.97;2.28;;;18.10;99.90;;;;;;4947856;28;20497;-80
2022/10/24 03:39:27;;;;;;;7.50;2.10;;;17.80;99.90;;;;;;4938315;29;20446;-77
2022/10/24 03:41:53;;;;;;;4.50;2.00;;;17.40;99.90;;;;;;4950788;29;20407;-77
2022/10/24 03:44:18;;;;;;;6.13;2.90;;;17.30;99.90;;;;;;4950928;29;20449;-80
2022/10/24 03:46:44;;;;;;;6.93;2.20;;;17.30;99.90;;;;;;4947590;29;20410;-78
2022/10/24 03:49:09;;;;;;;6.47;2.23;;;17.10;99.90;;;;;;4942876;28;20434;-77
2022/10/24 03:51:35;;;;;;;4.20;1.90;;;17.30;99.90;;;;;;4934651;29;20933;-77
2022/10/24 03:54:00;;;;;;;6.20;2.10;;;17.30;99.90;;;;;;4935527;29;20947;-77
2022/10/24 03:56:26;;;;;;;3.40;1.75;;;17.10;99.90;;;;;;4937018;28;20901;-77
2022/10/24 03:58:52;;;;;;;8.10;2.50;;;17.20;99.90;;;;;;4927804;29;20445;-77
2022/10/24 04:01:18;;;;;;;7.63;1.70;;;17.30;99.90;;;;;;4940452;29;20411;-78
2022/10/24 04:03:44;;;;;;;3.97;1.87;;;17.30;99.90;;;;;;4933632;29;20411;-78
2022/10/24 04:06:11;;;;;;;3.70;2.20;;;17.40;99.90;;;;;;4935629;29;20544;-79
2022/10/24 04:08:36;;;;;;;3.85;2.25;;;17.20;99.90;;;;;;4936031;29;20426;-79
2022/10/24 04:11:03;;;;;;;4.32;2.10;;;17.20;99.90;;;;;;4934417;29;20420;-78
2022/10/24 04:13:28;;;;;;;7.35;1.73;;;16.80;99.90;;;;;;4938428;29;20420;-79
2022/10/24 04:15:54;;;;;;;4.50;1.80;;;17.00;99.90;;;;;;4945444;28;20409;-77
2022/10/24 04:18:19;;;;;;;4.60;1.67;;;16.90;99.90;;;;;;4934478;29;20404;-77
2022/10/24 04:20:45;;;;;;;5.50;2.13;;;16.80;99.90;;;;;;4933432;29;20411;-78
2022/10/24 04:23:11;;;;;;;4.60;1.67;;;16.70;99.90;;;;;;4933916;29;20404;-77
2022/10/24 04:25:36;;;;;;;5.80;1.67;;;17.00;99.90;;;;;;4941092;29;20415;-77
2022/10/24 04:28:02;;;;;;;5.97;2.10;;;17.10;99.90;;;;;;4943577;29;20415;-77
2022/10/24 04:30:28;;;;;;;3.22;1.77;;;17.00;99.90;;;;;;4935998;29;20449;-77
2022/10/24 04:32:55;;;;;;;2.95;1.50;;;16.90;99.90;;;;;;4933047;29;20426;-76
2022/10/24 04:35:21;;;;;;;3.63;1.93;;;16.70;99.90;;;;;;4960287;23;20443;-74
2022/10/24 04:37:46;;;;;;;4.77;1.73;;;16.60;99.90;;;;;;4931923;29;20412;-74
2022/10/24 04:40:12;;;;;;;3.00;1.67;;;16.60;99.90;;;;;;4927831;29;20472;-75
2022/10/24 04:42:37;;;;;;;7.60;2.05;;;16.70;99.90;;;;;;4926687;29;20802;-75
2022/10/24 04:45:03;;;;;;;6.93;2.50;;;16.70;99.90;;;;;;4931424;29;20388;-75
2022/10/24 04:47:29;;;;;;;3.95;2.08;;;16.60;99.90;;;;;;4927485;28;20408;-75
2022/10/24 04:49:54;;;;;;;3.50;2.00;;;16.50;99.90;;;;;;4947788;28;20427;-75
2022/10/24 04:52:20;;;;;;;4.85;1.88;;;16.50;99.90;;;;;;4930300;29;20790;-74
2022/10/24 04:54:45;;;;;;;4.30;1.93;;;16.40;99.90;;;;;;4932149;28;20431;-74
2022/10/24 04:57:11;;;;;;;4.17;1.80;;;16.30;99.90;;;;;;4930707;29;20442;-74
2022/10/24 04:59:37;;;;;;;4.72;1.65;;;16.60;99.90;;;;;;4928495;29;20413;-75
2022/10/24 05:02:02;;;;;;;4.30;1.90;;;16.80;99.90;;;;;;4932025;29;20406;-75
2022/10/24 05:04:28;;;;;;;6.60;1.63;;;17.30;99.90;;;;;;4931896;29;20487;-75
2022/10/24 05:06:54;;;;;;;4.50;1.90;;;17.50;99.90;;;;;;4926987;28;20443;-74
2022/10/24 05:09:19;;;;;;;3.22;1.58;;;17.50;99.90;;;;;;4934604;29;20439;-75
2022/10/24 05:11:45;;;;;;;4.47;1.80;;;17.50;99.90;;;;;;4930687;29;20502;-77
2022/10/24 05:14:10;;;;;;;4.93;1.97;;;17.10;99.90;;;;;;4931892;29;20853;-74
2022/10/24 05:16:36;;;;;;;3.38;1.77;;;16.80;99.90;;;;;;4945347;28;20790;-79
2022/10/24 05:19:01;;;;;;;6.07;2.08;;;15.90;99.90;;;;;;4930443;29;20407;-74
2022/10/24 05:21:27;;;;;;;4.27;2.00;;;15.60;99.90;;;;;;4932689;29;20780;-75
2022/10/24 05:23:52;;;;;;;7.80;2.30;;;15.50;99.90;;;;;;4933424;29;20979;-78
2022/10/24 05:26:18;;;;;;;4.93;2.13;;;15.30;99.90;;;;;;4929103;29;20419;-79
2022/10/24 05:28:43;;;;;;;6.70;2.00;;;15.50;99.90;;;;;;4939815;28;20436;-80
2022/10/24 05:31:09;;;;;;;4.87;1.80;;;15.30;99.90;;;;;;4941235;28;20419;-79
2022/10/24 05:33:34;;;;;;;3.03;1.85;;;15.30;99.90;;;;;;4944052;28;20405;-79
2022/10/24 05:36:00;;;;;;;5.20;1.97;;;15.20;99.90;;;;;;4944489;28;20432;-78
2022/10/24 05:38:26;;;;;;;3.63;2.00;;;15.20;99.90;;;;;;4952638;28;20411;-78
2022/10/24 05:40:52;;;;;;;6.30;2.40;;;15.20;99.90;;;;;;4937540;29;20514;-79
2022/10/24 05:43:18;;;;;;;4.23;2.10;;;15.20;99.90;;;;;;4941099;29;20412;-79
2022/10/24 05:45:43;;;;;;;8.50;2.60;;;15.20;99.90;;;;;;4947539;29;20407;-78
2022/10/24 05:48:09;;;;;;;5.70;2.50;;;15.00;99.90;;;;;;4931648;29;20427;-79
2022/10/24 05:50:35;;;;;;;6.65;2.75;;;15.00;99.90;;;;;;4933338;28;20814;-79
2022/10/24 05:53:00;;;;;;;5.38;2.03;;;15.00;99.90;;;;;;4924041;29;20980;-79
2022/10/24 05:55:26;;;;;;;4.28;2.25;;;15.00;99.90;;;;;;4935945;29;20422;-79
2022/10/24 05:57:52;;;;;;;3.87;2.03;;;15.00;99.90;;;;;;4945742;28;20493;-79
2022/10/24 06:00:17;;;;;;;6.50;2.33;;;15.00;99.90;;;;;;4936798;28;20435;-78
2022/10/24 06:02:44;;;;;;;6.28;2.70;;;14.90;99.90;;;;;;4934920;28;20519;-79
2022/10/24 06:05:11;;;;;;;6.15;2.47;;;15.00;99.90;;;;;;4935291;29;20842;-79
2022/10/24 06:07:36;;;;;;;4.57;2.30;;;14.90;99.90;;;;;;4937664;29;20418;-79
2022/10/24 06:10:05;;;;;;;6.17;2.50;;;14.90;99.90;;;;;;4932932;29;20916;-80
2022/10/24 06:12:31;;;;;;;29.77;18.52;;;14.90;99.90;;;;;;4925482;29;20407;-77
2022/10/24 06:14:58;;;;;;;9.07;5.07;;;15.00;99.90;;;;;;4959176;28;20536;-79
2022/10/24 06:17:25;;;;;;;7.68;3.42;;;14.90;99.90;;;;;;4933848;28;20474;-79
2022/10/24 06:19:50;;;;;;;4.60;2.60;;;14.90;99.90;;;;;;4948004;28;20406;-79
2022/10/24 06:22:17;;;;;;;6.70;2.90;;;15.00;99.90;;;;;;4954111;28;20411;-79
2022/10/24 06:24:42;;;;;;;5.53;3.03;;;14.90;99.90;;;;;;4937459;29;20878;-79
2022/10/24 06:27:08;;;;;;;4.93;2.30;;;14.90;99.90;;;;;;4938162;29;20392;-79
2022/10/24 06:29:34;;;;;;;4.47;2.10;;;15.00;99.90;;;;;;4937368;29;20457;-79
2022/10/24 06:32:00;;;;;;;5.73;2.80;;;14.90;99.90;;;;;;4932696;29;20416;-78
2022/10/24 06:34:26;;;;;;;4.78;2.95;;;14.90;99.90;;;;;;4934683;29;20422;-79
2022/10/24 06:36:52;;;;;;;5.87;2.67;;;15.00;99.90;;;;;;4937023;29;20396;-79
2022/10/24 06:39:17;;;;;;;4.20;2.30;;;15.00;99.90;;;;;;4936325;29;20503;-79
2022/10/24 06:41:43;;;;;;;5.17;2.63;;;15.00;99.90;;;;;;4937450;29;20427;-79
2022/10/24 06:44:08;;;;;;;5.03;2.90;;;14.90;99.90;;;;;;4936347;29;20403;-79
2022/10/24 06:46:34;;;;;;;4.70;2.70;;;14.90;99.90;;;;;;4937114;29;20434;-78
2022/10/24 06:49:00;;;;;;;4.70;2.57;;;14.80;99.90;;;;;;4936607;29;20403;-78
2022/10/24 06:51:25;;;;;;;6.23;2.90;;;14.90;99.90;;;;;;4937409;29;20407;-77
2022/10/24 06:53:51;;;;;;;7.38;3.03;;;14.90;99.90;;;;;;4939906;29;20395;-77
2022/10/24 06:56:17;;;;;;;5.43;2.70;;;14.90;99.90;;;;;;4946458;29;20509;-77
2022/10/24 06:58:42;;;;;;;4.07;2.28;;;14.90;99.90;;;;;;4942071;29;20479;-77
2022/10/24 07:01:19;;;;;;;6.10;3.15;;;15.00;99.90;;;;;;4939491;29;20419;-76
2022/10/24 07:03:46;;;;;;;10.65;2.70;;;15.00;99.90;;;;;;4937735;29;20474;-78
2022/10/24 07:06:21;;;;;;;6.93;3.20;;;15.00;99.90;;;;;;4937709;29;20391;-78
2022/10/24 07:08:47;;;;;;;6.10;2.90;;;15.10;99.90;;;;;;4936648;29;20490;-77
2022/10/24 07:11:13;;;;;;;5.23;3.00;;;15.00;99.90;;;;;;4936359;28;20412;-77
2022/10/24 07:13:38;;;;;;;3.63;2.60;;;15.10;99.90;;;;;;4936367;29;20406;-78
2022/10/24 07:16:05;;;;;;;5.90;2.40;;;15.00;99.90;;;;;;4951035;29;20461;-77
2022/10/24 07:18:30;;;;;;;5.55;2.63;;;15.10;99.90;;;;;;4936672;29;20383;-77
2022/10/24 07:21:04;;;;;;;5.70;2.40;;;15.00;99.90;;;;;;4935048;29;20423;-77
2022/10/24 07:23:30;;;;;;;5.38;2.30;;;15.10;99.90;;;;;;4935774;29;20415;-77
2022/10/24 07:26:04;;;;;;;4.03;2.22;;;15.00;99.90;;;;;;4936446;29;20507;-77
2022/10/24 07:28:30;;;;;;;6.35;2.33;;;15.00;99.90;;;;;;4936391;29;20395;-77
2022/10/24 07:30:55;;;;;;;6.60;2.38;;;15.10;99.90;;;;;;4935910;29;20453;-77
2022/10/24 07:33:21;;;;;;;4.07;2.30;;;15.00;99.90;;;;;;4935717;29;20391;-77
2022/10/24 07:35:46;;;;;;;5.30;2.30;;;15.10;99.90;;;;;;4947696;29;20490;-77
2022/10/24 07:38:12;;;;;;;4.50;2.28;;;15.10;99.90;;;;;;4916248;29;20929;-77
2022/10/24 07:40:37;;;;;;;5.60;2.57;;;15.10;99.90;;;;;;4917229;29;20425;-76
2022/10/24 07:43:03;;;;;;;5.20;2.60;;;15.10;99.90;;;;;;4935053;29;20415;-77
2022/10/24 07:45:31;;;;;;;6.32;2.28;;;15.10;99.90;;;;;;4940315;29;20636;-76
2022/10/24 07:47:58;;;;;;;7.37;2.90;;;15.10;99.90;;;;;;4937845;29;20459;-77
2022/10/24 07:50:23;;;;;;;5.00;2.80;;;15.10;99.90;;;;;;4944241;29;20913;-75
2022/10/24 07:52:49;;;;;;;5.03;2.65;;;15.00;99.90;;;;;;4936548;29;20413;-78
2022/10/24 07:55:15;;;;;;;5.60;3.20;;;15.10;99.90;;;;;;4940420;28;20413;-77
2022/10/24 07:57:40;;;;;;;4.25;2.60;;;15.10;99.90;;;;;;4943231;29;20408;-77
2022/10/24 08:00:06;;;;;;;4.95;2.83;;;15.10;99.90;;;;;;4935745;29;20399;-76
2022/10/24 08:02:32;;;;;;;4.30;2.67;;;15.10;99.90;;;;;;4935358;29;20384;-77
2022/10/24 08:04:58;;;;;;;6.30;3.60;;;15.10;99.90;;;;;;4935417;29;20487;-77
2022/10/24 08:07:23;;;;;;;5.90;3.42;;;15.10;99.90;;;;;;4950075;29;20399;-77
2022/10/24 08:09:50;;;;;;;4.97;3.00;;;15.10;99.90;;;;;;4949852;28;20518;-77
2022/10/24 08:12:16;;;;;;;6.20;3.80;;;15.00;99.90;;;;;;4949125;29;20400;-77
2022/10/24 08:14:42;;;;;;;4.60;2.95;;;15.10;99.90;;;;;;4947078;28;20810;-77
2022/10/24 08:17:09;;;;;;;5.95;2.70;;;15.00;99.90;;;;;;4959280;28;20385;-77
2022/10/24 08:19:40;;;;;;;5.70;2.70;;;15.10;99.90;;;;;;4944237;28;20420;-75
2022/10/24 08:22:07;;;;;;;4.65;2.70;;;15.10;99.90;;;;;;4931335;28;20414;-76
2022/10/24 08:24:32;;;;;;;5.43;2.45;;;15.10;99.90;;;;;;4959077;28;20406;-77
2022/10/24 08:26:58;;;;;;;5.93;2.60;;;15.10;99.90;;;;;;4945674;28;20406;-76
2022/10/24 08:29:24;;;;;;;7.70;3.00;;;15.10;99.90;;;;;;4938191;28;20476;-77
2022/10/24 08:31:54;;;;;;;5.57;3.00;;;15.20;99.90;;;;;;4960914;28;20410;-77
2022/10/24 08:34:21;;;;;;;6.85;3.03;;;15.20;99.90;;;;;;4954372;28;20437;-77
2022/10/24 08:36:47;;;;;;;3.90;2.50;;;15.10;99.90;;;;;;4973587;28;20969;-77
2022/10/24 08:39:13;;;;;;;6.55;3.08;;;15.10;99.90;;;;;;4945510;28;20520;-75
2022/10/24 08:41:42;;;;;;;4.40;2.60;;;15.00;99.90;;;;;;4948510;29;20851;-77
2022/10/24 08:44:42;;;;;;;4.40;2.60;;;15.10;99.90;;;;;;4933803;29;20410;-77
2022/10/24 08:47:28;;;;;;;7.47;2.60;;;15.10;99.90;;;;;;4946163;28;20415;-77
2022/10/24 08:50:03;;;;;;;5.75;2.25;;;15.20;99.90;;;;;;4945986;28;20410;-76
2022/10/24 08:52:59;;;;;;;5.82;2.50;;;15.20;99.90;;;;;;4943597;28;20399;-76
2022/10/24 08:55:34;;;;;;;4.45;2.30;;;15.10;99.90;;;;;;4948989;29;20918;-77
2022/10/24 08:58:00;;;;;;;3.72;2.70;;;15.10;99.90;;;;;;4934195;29;20490;-77
2022/10/24 09:00:31;;;;;;;5.88;2.40;;;15.10;99.90;;;;;;4933838;29;20787;-77
2022/10/24 09:03:11;;;;;;;5.40;2.35;;;15.10;99.90;;;;;;4934586;29;20412;-77
2022/10/24 09:05:43;;;;;;;5.15;2.30;;;15.10;99.90;;;;;;4956270;28;20490;-76
2022/10/24 09:08:52;;;;;;;2.97;1.90;;;15.20;99.90;;;;;;4934420;29;20522;-77
2022/10/24 09:11:44;;;;;;;5.50;2.30;;;15.10;99.90;;;;;;4933367;29;20503;-76
2022/10/24 09:14:15;;;;;;;6.70;2.30;;;15.20;99.90;;;;;;4933599;29;20395;-77
2022/10/24 09:16:43;;;;;;;7.93;2.38;;;15.20;99.90;;;;;;4949180;29;20435;-77
2022/10/24 09:19:18;;;;;;;5.38;2.88;;;15.30;99.90;;;;;;4934113;29;20418;-77
2022/10/24 09:21:45;;;;;;;5.00;2.57;;;15.20;99.90;;;;;;4933424;29;20567;-76
2022/10/24 09:24:40;;;;;;;7.00;2.67;;;15.40;99.90;;;;;;4933848;29;20396;-76
2022/10/24 09:27:23;;;;;;;4.00;2.20;;;15.40;99.90;;;;;;4934467;29;20879;-77
2022/10/24 09:29:50;;;;;;;5.17;2.30;;;15.40;99.90;;;;;;4935145;29;20500;-77
2022/10/24 09:32:25;;;;;;;4.43;2.65;;;15.40;99.90;;;;;;4948934;29;20415;-77
2022/10/24 09:34:51;;;;;;;4.03;2.40;;;15.50;99.90;;;;;;4934053;29;20459;-77
2022/10/24 09:37:30;;;;;;;5.23;3.00;;;15.60;99.90;;;;;;4934170;29;20778;-76
2022/10/24 09:40:13;;;;;;;5.43;2.63;;;15.60;99.90;;;;;;4933134;28;20409;-76
2022/10/24 09:42:40;;;;;;;5.28;3.22;;;15.80;99.90;;;;;;4913841;29;20409;-74
2022/10/24 09:45:29;;;;;;;5.47;2.50;;;15.60;99.90;;;;;;4914036;29;20394;-74
2022/10/24 09:48:01;;;;;;;4.13;2.08;;;15.70;99.90;;;;;;4930065;29;20402;-73
2022/10/24 09:50:27;;;;;;;4.22;2.63;;;16.10;99.90;;;;;;4932810;29;20812;-74
2022/10/24 09:52:56;;;;;;;4.80;2.40;;;16.10;99.90;;;;;;4933343;29;20408;-75
2022/10/24 09:55:27;;;;;;;4.70;2.20;;;15.90;99.90;;;;;;4944037;28;20393;-74
2022/10/24 09:57:56;;;;;;;5.43;1.95;;;15.80;99.90;;;;;;4937387;28;20417;-74
2022/10/24 10:00:27;;;;;;;4.88;2.10;;;15.90;99.90;;;;;;4935593;29;20406;-74
2022/10/24 10:03:06;;;;;;;4.37;2.20;;;15.80;99.90;;;;;;4937935;29;20889;-73
2022/10/24 10:05:47;;;;;;;4.72;2.00;;;15.90;99.90;;;;;;4944561;28;20413;-77
2022/10/24 10:08:22;;;;;;;3.47;2.13;;;16.10;99.90;;;;;;4938107;29;20419;-77
2022/10/24 10:11:01;;;;;;;5.90;2.90;;;15.90;99.90;;;;;;4942239;29;20493;-76
2022/10/24 10:13:28;;;;;;;5.93;2.47;;;15.80;99.90;;;;;;4944643;29;20419;-76
2022/10/24 10:15:55;;;;;;;5.03;2.30;;;16.00;99.90;;;;;;4943466;29;20987;-75
2022/10/24 10:18:39;;;;;;;6.13;2.33;;;15.80;99.90;;;;;;4946561;29;20485;-74
2022/10/24 10:21:15;;;;;;;3.00;2.10;;;15.80;99.90;;;;;;4959602;28;20435;-74
2022/10/24 10:23:53;;;;;;;3.95;2.08;;;15.80;99.90;;;;;;4947755;28;20443;-73
2022/10/24 10:26:29;;;;;;;5.90;2.60;;;15.80;99.90;;;;;;4935770;28;20419;-73
2022/10/24 10:29:01;;;;;;;4.35;2.00;;;16.00;99.90;;;;;;4936339;28;20547;-74
2022/10/24 10:31:42;;;;;;;5.50;2.20;;;16.00;99.90;;;;;;4950925;29;20414;-72
2022/10/24 10:34:24;;;;;;;3.60;2.40;;;15.90;99.90;;;;;;4944187;28;20449;-73
2022/10/24 10:37:27;;;;;;;3.42;1.70;;;15.80;99.90;;;;;;4937952;29;20408;-74
2022/10/24 10:40:12;;;;;;;3.47;2.10;;;15.70;99.90;;;;;;4934302;29;20803;-73
2022/10/24 10:43:09;;;;;;;3.50;1.55;;;15.60;99.90;;;;;;4939513;29;20440;-74
2022/10/24 10:45:38;;;;;;;1.88;1.27;;;15.70;99.90;;;;;;4936552;29;20960;-74
2022/10/24 10:48:22;;;;;;;3.00;1.35;;;15.70;99.90;;;;;;4949216;29;20501;-74
2022/10/24 10:51:16;;;;;;;2.00;1.30;;;15.60;99.90;;;;;;4934612;29;20506;-74
2022/10/24 10:54:10;;;;;;;2.58;1.38;;;15.60;99.90;;;;;;4933597;29;20702;-75
2022/10/24 11:00:06;;;;;;;2.00;1.20;;;15.80;99.90;;;;;;4948650;28;20415;-75
2022/10/24 11:02:38;;;;;;;1.67;1.20;;;15.80;99.90;;;;;;4932175;29;20967;-74
2022/10/24 11:05:25;;;;;;;2.50;1.50;;;15.80;99.90;;;;;;4940569;29;20419;-74
2022/10/24 11:08:25;;;;;;;2.45;1.30;;;15.90;99.90;;;;;;4944440;29;20464;-73
2022/10/24 11:10:59;;;;;;;1.77;1.10;;;15.90;99.90;;;;;;4933728;29;20421;-74
2022/10/24 11:13:40;;;;;;;1.23;1.00;;;15.90;99.90;;;;;;4941732;29;20418;-76
2022/10/24 11:16:13;;;;;;;2.80;1.00;;;16.00;99.90;;;;;;4941684;29;20410;-75
2022/10/24 11:18:43;;;;;;;2.00;1.10;;;16.10;99.90;;;;;;4936397;29;20566;-74
2022/10/24 11:21:14;;;;;;;1.10;1.00;;;16.10;99.90;;;;;;4937360;29;20415;-73
2022/10/24 11:23:43;;;;;;;1.50;1.02;;;16.00;99.90;;;;;;4941011;28;20435;-73
2022/10/24 11:26:20;;;;;;;2.13;1.60;;;16.20;99.90;;;;;;4938383;29;20772;-74
2022/10/24 11:28:58;;;;;;;3.83;1.27;;;16.30;99.90;;;;;;4943756;29;20796;-74
2022/10/24 11:31:36;;;;;;;1.83;1.20;;;16.20;99.90;;;;;;4938193;28;20486;-74
2022/10/24 11:34:12;;;;;;;2.47;1.20;;;16.30;99.90;;;;;;4945279;28;20474;-74
2022/10/24 11:36:53;;;;;;;2.92;1.38;;;16.40;99.90;;;;;;4935314;29;20446;-74
2022/10/24 11:39:27;;;;;;;1.40;1.20;;;16.50;99.90;;;;;;4935007;29;20826;-74
2022/10/24 11:42:23;;;;;;;3.03;1.30;;;16.50;99.90;;;;;;4936122;29;20402;-74
2022/10/24 11:45:05;;;;;;;2.90;1.43;;;16.60;99.90;;;;;;4934461;29;20504;-74
2022/10/24 11:47:42;;;;;;;1.88;1.52;;;16.70;99.90;;;;;;4934819;29;20395;-75
2022/10/24 11:50:24;;;;;;;2.10;1.63;;;16.70;99.90;;;;;;4940944;29;20522;-74
2022/10/24 11:53:12;;;;;;;2.80;1.60;;;16.90;99.90;;;;;;4945049;29;20396;-74
2022/10/24 11:55:42;;;;;;;2.58;1.52;;;17.00;99.90;;;;;;4934681;29;20388;-74
2022/10/24 11:58:13;;;;;;;2.92;1.40;;;17.30;99.90;;;;;;4934825;29;20383;-74
2022/10/24 12:00:59;;;;;;;3.22;1.65;;;17.50;99.90;;;;;;4934499;29;20404;-74
2022/10/24 12:03:24;;;;;;;1.87;1.40;;;17.90;99.90;;;;;;4936961;29;20415;-73
2022/10/24 12:06:29;;;;;;;2.90;2.00;;;18.10;99.90;;;;;;4933384;29;20478;-74
2022/10/24 12:09:12;;;;;;;2.60;1.50;;;18.20;99.90;;;;;;4934067;29;20415;-74
2022/10/24 12:12:05;;;;;;;4.90;1.30;;;18.30;99.90;;;;;;4937147;29;20476;-74
2022/10/24 12:14:52;;;;;;;2.50;1.40;;;18.10;99.90;;;;;;4929439;29;20426;-74
2022/10/24 12:17:55;;;;;;;1.80;1.20;;;18.10;99.90;;;;;;4928913;29;20468;-74
2022/10/24 12:20:23;;;;;;;3.28;1.50;;;18.00;99.90;;;;;;4939000;29;20422;-74
2022/10/24 12:22:50;;;;;;;1.73;1.40;;;17.90;99.90;;;;;;4930960;29;20400;-74
2022/10/24 12:25:21;;;;;;;3.47;1.60;;;18.00;99.90;;;;;;4930267;29;20421;-74
2022/10/24 12:28:00;;;;;;;2.47;1.42;;;18.00;99.90;;;;;;4956612;28;20797;-74
2022/10/24 12:30:28;;;;;;;2.80;1.30;;;17.90;99.90;;;;;;4934702;29;20426;-74
2022/10/24 12:33:26;;;;;;;2.85;1.60;;;17.90;99.90;;;;;;4939597;29;20421;-75
2022/10/24 12:35:56;;;;;;;4.90;1.42;;;17.90;99.90;;;;;;4926230;28;20835;-74
2022/10/24 12:38:27;;;;;;;2.20;1.50;;;17.90;99.90;;;;;;4930851;29;20502;-74
2022/10/24 12:40:55;;;;;;;3.50;1.67;;;17.90;99.90;;;;;;4940169;29;20502;-74
2022/10/24 12:43:37;;;;;;;1.75;1.50;;;17.90;99.90;;;;;;4941018;29;20424;-74
2022/10/24 12:46:26;;;;;;;2.50;1.60;;;17.90;99.90;;;;;;4941077;28;20414;-74
2022/10/24 12:48:57;;;;;;;6.47;2.20;;;18.00;99.90;;;;;;4927334;29;20411;-71
2022/10/24 12:51:33;;;;;;;3.70;1.80;;;18.10;99.90;;;;;;4950008;28;20416;-71
2022/10/24 12:54:01;;;;;;;2.33;1.73;;;18.20;99.90;;;;;;4927820;28;20424;-70
2022/10/24 12:56:27;;;;;;;1.60;1.38;;;18.40;99.90;;;;;;4933018;29;20392;-72
2022/10/24 12:59:01;;;;;;;2.70;1.60;;;18.30;99.90;;;;;;4932976;29;20407;-71
2022/10/24 13:01:33;;;;;;;3.75;1.70;;;18.30;99.90;;;;;;4933293;29;20396;-72
2022/10/24 13:04:33;;;;;;;3.55;1.80;;;18.20;99.90;;;;;;4947640;29;20898;-72
2022/10/24 13:07:27;;;;;;;3.30;2.20;;;18.40;99.90;;;;;;4929408;29;20457;-72
2022/10/24 13:10:17;;;;;;;3.70;1.75;;;18.50;99.90;;;;;;4932833;29;20486;-72